sensor_id;sensor_type;location;lat;lon;timestamp;temperature;humidity
12152;DHT22;6139;51.274;7.128;2023-03-20T00:01:01;9.20;99.90
12152;DHT22;6139;51.274;7.128;2023-03-20T00:02:04;9.20;99.90
12152;DHT22;6139;51.274;7.128;2023-03-20T00:03:08;9.20;99.90
12152;DHT22;6139;51.274;7.128;2023-03-20T00:04:10;9.20;99.90
12152;DHT22;6139;51.274;7.128;2023-03-20T00:05:17;9.20;99.90
12152;DHT22;6139;51.274;7.128;2023-03-20T00:06:21;9.10;99.90
12152;DHT22;6139;51.274;7.128;2023-03-20T00:07:24;9.10;99.90
12152;DHT22;6139;51.274;7.128;2023-03-20T00:08:25;9.10;99.90
12152;DHT22;6139;51.274;7.128;2023-03-20T00:09:29;9.10;99.90
12152;DHT22;6139;51.274;7.128;2023-03-20T00:10:34;9.10;99.90
12152;DHT22;6139;51.274;7.128;2023-03-20T00:11:41;9.10;99.90
12152;DHT22;6139;51.274;7.128;2023-03-20T00:12:46;9.10;99.90
12152;DHT22;6139;51.274;7.128;2023-03-20T00:13:48;9.10;99.90
12152;DHT22;6139;51.274;7.128;2023-03-20T00:14:50;9.10;99.90
12152;DHT22;6139;51.274;7.128;2023-03-20T00:15:52;9.10;99.90
12152;DHT22;6139;51.274;7.128;2023-03-20T00:16:54;9.10;99.90
12152;DHT22;6139;51.274;7.128;2023-03-20T00:17:55;9.10;99.90
12152;DHT22;6139;51.274;7.128;2023-03-20T00:18:57;9.10;99.90
12152;DHT22;6139;51.274;7.128;2023-03-20T00:19:58;9.10;99.90
12152;DHT22;6139;51.274;7.128;2023-03-20T00:21:01;9.10;99.90
12152;DHT22;6139;51.274;7.128;2023-03-20T00:22:02;9.10;99.90
12152;DHT22;6139;51.274;7.128;2023-03-20T00:23:04;9.10;99.90
12152;DHT22;6139;51.274;7.128;2023-03-20T00:24:06;9.10;99.90
12152;DHT22;6139;51.274;7.128;2023-03-20T00:25:12;9.10;99.90
12152;DHT22;6139;51.274;7.128;2023-03-20T00:26:15;9.00;99.90
12152;DHT22;6139;51.274;7.128;2023-03-20T00:27:17;9.00;99.90
12152;DHT22;6139;51.274;7.128;2023-03-20T00:28:29;9.00;99.90
12152;DHT22;6139;51.274;7.128;2023-03-20T00:29:32;9.00;99.90
12152;DHT22;6139;51.274;7.128;2023-03-20T00:30:34;9.00;99.90
12152;DHT22;6139;51.274;7.128;2023-03-20T00:31:37;8.90;99.90
12152;DHT22;6139;51.274;7.128;2023-03-20T00:32:39;8.90;99.90
12152;DHT22;6139;51.274;7.128;2023-03-20T00:33:41;8.90;99.90
12152;DHT22;6139;51.274;7.128;2023-03-20T00:34:43;8.90;99.90
12152;DHT22;6139;51.274;7.128;2023-03-20T00:35:47;8.90;99.90
12152;DHT22;6139;51.274;7.128;2023-03-20T00:36:49;8.90;99.90
12152;DHT22;6139;51.274;7.128;2023-03-20T00:37:51;8.90;99.90
12152;DHT22;6139;51.274;7.128;2023-03-20T00:38:54;8.90;99.90
12152;DHT22;6139;51.274;7.128;2023-03-20T00:39:57;8.90;99.90
12152;DHT22;6139;51.274;7.128;2023-03-20T00:41:00;8.90;99.90
12152;DHT22;6139;51.274;7.128;2023-03-20T00:42:03;8.90;99.90
12152;DHT22;6139;51.274;7.128;2023-03-20T00:43:10;8.80;99.90
12152;DHT22;6139;51.274;7.128;2023-03-20T00:44:19;8.80;99.90
12152;DHT22;6139;51.274;7.128;2023-03-20T00:45:22;8.70;99.90
12152;DHT22;6139;51.274;7.128;2023-03-20T00:46:23;8.70;99.90
12152;DHT22;6139;51.274;7.128;2023-03-20T00:47:26;8.70;99.90
12152;DHT22;6139;51.274;7.128;2023-03-20T00:48:28;8.60;99.90
12152;DHT22;6139;51.274;7.128;2023-03-20T00:49:33;8.60;99.90
12152;DHT22;6139;51.274;7.128;2023-03-20T00:50:35;8.70;99.90
12152;DHT22;6139;51.274;7.128;2023-03-20T00:51:39;8.70;99.90
12152;DHT22;6139;51.274;7.128;2023-03-20T00:52:42;8.70;99.90
12152;DHT22;6139;51.274;7.128;2023-03-20T00:53:45;8.70;99.90
12152;DHT22;6139;51.274;7.128;2023-03-20T00:54:46;8.70;99.90
12152;DHT22;6139;51.274;7.128;2023-03-20T00:55:49;8.70;99.90
12152;DHT22;6139;51.274;7.128;2023-03-20T00:56:54;8.60;99.90
12152;DHT22;6139;51.274;7.128;2023-03-20T00:57:58;8.60;99.90
12152;DHT22;6139;51.274;7.128;2023-03-20T00:59:01;8.60;99.90
12152;DHT22;6139;51.274;7.128;2023-03-20T01:00:06;8.60;99.90
12152;DHT22;6139;51.274;7.128;2023-03-20T01:01:08;8.60;99.90
12152;DHT22;6139;51.274;7.128;2023-03-20T01:02:10;8.50;99.90
12152;DHT22;6139;51.274;7.128;2023-03-20T01:03:14;8.50;99.90
12152;DHT22;6139;51.274;7.128;2023-03-20T01:04:19;8.50;99.90
12152;DHT22;6139;51.274;7.128;2023-03-20T01:05:20;8.50;99.90
12152;DHT22;6139;51.274;7.128;2023-03-20T01:06:22;8.50;99.90
12152;DHT22;6139;51.274;7.128;2023-03-20T01:07:23;8.50;99.90
12152;DHT22;6139;51.274;7.128;2023-03-20T01:08:26;8.50;99.90
12152;DHT22;6139;51.274;7.128;2023-03-20T01:09:27;8.50;99.90
12152;DHT22;6139;51.274;7.128;2023-03-20T01:10:31;8.50;99.90
12152;DHT22;6139;51.274;7.128;2023-03-20T01:11:32;8.50;99.90
12152;DHT22;6139;51.274;7.128;2023-03-20T01:12:36;8.50;99.90
12152;DHT22;6139;51.274;7.128;2023-03-20T01:13:37;8.50;99.90
12152;DHT22;6139;51.274;7.128;2023-03-20T01:14:40;8.50;99.90
12152;DHT22;6139;51.274;7.128;2023-03-20T01:15:41;8.50;99.90
12152;DHT22;6139;51.274;7.128;2023-03-20T01:16:44;8.50;99.90
12152;DHT22;6139;51.274;7.128;2023-03-20T01:17:45;8.40;99.90
12152;DHT22;6139;51.274;7.128;2023-03-20T01:18:48;8.40;99.90
12152;DHT22;6139;51.274;7.128;2023-03-20T01:19:49;8.40;99.90
12152;DHT22;6139;51.274;7.128;2023-03-20T01:20:51;8.40;99.90
12152;DHT22;6139;51.274;7.128;2023-03-20T01:21:53;8.30;99.90
12152;DHT22;6139;51.274;7.128;2023-03-20T01:22:55;8.40;99.90
12152;DHT22;6139;51.274;7.128;2023-03-20T01:23:56;8.30;99.90
12152;DHT22;6139;51.274;7.128;2023-03-20T01:24:58;8.40;99.90
12152;DHT22;6139;51.274;7.128;2023-03-20T01:25:59;8.40;99.90
12152;DHT22;6139;51.274;7.128;2023-03-20T01:27:01;8.40;99.90
12152;DHT22;6139;51.274;7.128;2023-03-20T01:28:14;8.40;99.90
12152;DHT22;6139;51.274;7.128;2023-03-20T01:29:19;8.40;99.90
12152;DHT22;6139;51.274;7.128;2023-03-20T01:30:23;8.40;99.90
12152;DHT22;6139;51.274;7.128;2023-03-20T01:31:25;8.40;99.90
12152;DHT22;6139;51.274;7.128;2023-03-20T01:32:26;8.40;99.90
12152;DHT22;6139;51.274;7.128;2023-03-20T01:33:28;8.40;99.90
12152;DHT22;6139;51.274;7.128;2023-03-20T01:34:31;8.40;99.90
12152;DHT22;6139;51.274;7.128;2023-03-20T01:35:32;8.40;99.90
12152;DHT22;6139;51.274;7.128;2023-03-20T01:36:37;8.40;99.90
12152;DHT22;6139;51.274;7.128;2023-03-20T01:37:40;8.40;99.90
12152;DHT22;6139;51.274;7.128;2023-03-20T01:38:44;8.40;99.90
12152;DHT22;6139;51.274;7.128;2023-03-20T01:39:48;8.40;99.90
12152;DHT22;6139;51.274;7.128;2023-03-20T01:40:53;8.40;99.90
12152;DHT22;6139;51.274;7.128;2023-03-20T01:41:56;8.40;99.90
12152;DHT22;6139;51.274;7.128;2023-03-20T01:42:57;8.30;99.90
12152;DHT22;6139;51.274;7.128;2023-03-20T01:44:16;8.30;99.90
12152;DHT22;6139;51.274;7.128;2023-03-20T01:45:20;8.30;99.90
12152;DHT22;6139;51.274;7.128;2023-03-20T01:46:24;8.30;99.90
12152;DHT22;6139;51.274;7.128;2023-03-20T01:47:28;8.30;99.90
12152;DHT22;6139;51.274;7.128;2023-03-20T01:49:04;8.30;99.90
12152;DHT22;6139;51.274;7.128;2023-03-20T01:50:30;8.30;99.90
12152;DHT22;6139;51.274;7.128;2023-03-20T01:51:35;8.30;99.90
12152;DHT22;6139;51.274;7.128;2023-03-20T01:52:45;8.30;99.90
12152;DHT22;6139;51.274;7.128;2023-03-20T01:53:50;8.30;99.90
12152;DHT22;6139;51.274;7.128;2023-03-20T01:54:53;8.30;99.90
12152;DHT22;6139;51.274;7.128;2023-03-20T01:55:56;8.30;99.90
12152;DHT22;6139;51.274;7.128;2023-03-20T01:57:09;8.30;99.90
12152;DHT22;6139;51.274;7.128;2023-03-20T01:58:15;8.30;99.90
12152;DHT22;6139;51.274;7.128;2023-03-20T01:59:24;8.30;99.90
12152;DHT22;6139;51.274;7.128;2023-03-20T02:00:26;8.40;99.90
12152;DHT22;6139;51.274;7.128;2023-03-20T02:01:29;8.30;99.90
12152;DHT22;6139;51.274;7.128;2023-03-20T02:02:31;8.30;99.90
12152;DHT22;6139;51.274;7.128;2023-03-20T02:03:33;8.30;99.90
12152;DHT22;6139;51.274;7.128;2023-03-20T02:04:58;8.30;99.90
12152;DHT22;6139;51.274;7.128;2023-03-20T02:06:03;8.30;99.90
12152;DHT22;6139;51.274;7.128;2023-03-20T02:07:25;8.30;99.90
12152;DHT22;6139;51.274;7.128;2023-03-20T02:08:39;8.30;99.90
12152;DHT22;6139;51.274;7.128;2023-03-20T02:09:41;8.30;99.90
12152;DHT22;6139;51.274;7.128;2023-03-20T02:10:49;8.30;99.90
12152;DHT22;6139;51.274;7.128;2023-03-20T02:11:56;8.30;99.90
12152;DHT22;6139;51.274;7.128;2023-03-20T02:12:59;8.30;99.90
12152;DHT22;6139;51.274;7.128;2023-03-20T02:14:07;8.30;99.90
12152;DHT22;6139;51.274;7.128;2023-03-20T02:15:19;8.30;99.90
12152;DHT22;6139;51.274;7.128;2023-03-20T02:16:34;8.20;99.90
12152;DHT22;6139;51.274;7.128;2023-03-20T02:17:54;8.20;99.90
12152;DHT22;6139;51.274;7.128;2023-03-20T02:18:56;8.20;99.90
12152;DHT22;6139;51.274;7.128;2023-03-20T02:20:06;8.20;99.90
12152;DHT22;6139;51.274;7.128;2023-03-20T02:21:38;8.20;99.90
12152;DHT22;6139;51.274;7.128;2023-03-20T02:23:07;8.20;99.90
12152;DHT22;6139;51.274;7.128;2023-03-20T02:26:23;8.10;99.90
12152;DHT22;6139;51.274;7.128;2023-03-20T02:27:32;8.10;99.90
12152;DHT22;6139;51.274;7.128;2023-03-20T02:29:11;8.20;99.90
12152;DHT22;6139;51.274;7.128;2023-03-20T02:33:52;8.10;99.90
12152;DHT22;6139;51.274;7.128;2023-03-20T02:35:32;8.10;99.90
12152;DHT22;6139;51.274;7.128;2023-03-20T02:40:06;8.10;99.90
12152;DHT22;6139;51.274;7.128;2023-03-20T02:41:14;8.10;99.90
12152;DHT22;6139;51.274;7.128;2023-03-20T02:42:27;8.00;99.90
12152;DHT22;6139;51.274;7.128;2023-03-20T02:43:41;8.00;99.90
12152;DHT22;6139;51.274;7.128;2023-03-20T02:44:49;8.00;99.90
12152;DHT22;6139;51.274;7.128;2023-03-20T02:45:55;8.00;99.90
12152;DHT22;6139;51.274;7.128;2023-03-20T02:47:04;7.90;99.90
12152;DHT22;6139;51.274;7.128;2023-03-20T02:48:12;7.90;99.90
12152;DHT22;6139;51.274;7.128;2023-03-20T02:49:30;7.90;99.90
12152;DHT22;6139;51.274;7.128;2023-03-20T02:50:37;7.90;99.90
12152;DHT22;6139;51.274;7.128;2023-03-20T02:51:48;7.90;99.90
12152;DHT22;6139;51.274;7.128;2023-03-20T02:53:01;7.90;99.90
12152;DHT22;6139;51.274;7.128;2023-03-20T02:54:12;7.80;99.90
12152;DHT22;6139;51.274;7.128;2023-03-20T02:55:25;7.80;99.90
12152;DHT22;6139;51.274;7.128;2023-03-20T02:56:36;7.80;99.90
12152;DHT22;6139;51.274;7.128;2023-03-20T02:57:46;7.80;99.90
12152;DHT22;6139;51.274;7.128;2023-03-20T02:58:56;7.80;99.90
12152;DHT22;6139;51.274;7.128;2023-03-20T03:00:05;7.80;99.90
12152;DHT22;6139;51.274;7.128;2023-03-20T03:01:15;7.80;99.90
12152;DHT22;6139;51.274;7.128;2023-03-20T03:02:20;7.80;99.90
12152;DHT22;6139;51.274;7.128;2023-03-20T03:03:27;7.80;99.90
12152;DHT22;6139;51.274;7.128;2023-03-20T03:04:34;7.80;99.90
12152;DHT22;6139;51.274;7.128;2023-03-20T03:05:40;7.80;99.90
12152;DHT22;6139;51.274;7.128;2023-03-20T03:06:44;7.80;99.90
12152;DHT22;6139;51.274;7.128;2023-03-20T03:07:51;7.80;99.90
12152;DHT22;6139;51.274;7.128;2023-03-20T03:08:59;7.80;99.90
12152;DHT22;6139;51.274;7.128;2023-03-20T03:10:07;7.80;99.90
12152;DHT22;6139;51.274;7.128;2023-03-20T03:11:10;7.80;99.90
12152;DHT22;6139;51.274;7.128;2023-03-20T03:12:15;7.80;99.90
12152;DHT22;6139;51.274;7.128;2023-03-20T03:13:21;7.90;99.90
12152;DHT22;6139;51.274;7.128;2023-03-20T03:14:36;7.80;99.90
12152;DHT22;6139;51.274;7.128;2023-03-20T03:15:47;7.90;99.90
12152;DHT22;6139;51.274;7.128;2023-03-20T03:16:50;7.90;99.90
12152;DHT22;6139;51.274;7.128;2023-03-20T03:17:54;7.90;99.90
12152;DHT22;6139;51.274;7.128;2023-03-20T03:19:02;7.90;99.90
12152;DHT22;6139;51.274;7.128;2023-03-20T03:20:12;7.90;99.90
12152;DHT22;6139;51.274;7.128;2023-03-20T03:21:16;7.90;99.90
12152;DHT22;6139;51.274;7.128;2023-03-20T03:22:19;7.90;99.90
12152;DHT22;6139;51.274;7.128;2023-03-20T03:23:28;7.90;99.90
12152;DHT22;6139;51.274;7.128;2023-03-20T03:24:31;7.90;99.90
12152;DHT22;6139;51.274;7.128;2023-03-20T03:25:38;7.90;99.90
12152;DHT22;6139;51.274;7.128;2023-03-20T03:26:41;7.90;99.90
12152;DHT22;6139;51.274;7.128;2023-03-20T03:27:44;7.80;99.90
12152;DHT22;6139;51.274;7.128;2023-03-20T03:28:49;7.80;99.90
12152;DHT22;6139;51.274;7.128;2023-03-20T03:29:53;7.80;99.90
12152;DHT22;6139;51.274;7.128;2023-03-20T03:30:56;7.80;99.90
12152;DHT22;6139;51.274;7.128;2023-03-20T03:32:00;7.80;99.90
12152;DHT22;6139;51.274;7.128;2023-03-20T03:33:11;7.90;99.90
12152;DHT22;6139;51.274;7.128;2023-03-20T03:34:15;7.90;99.90
12152;DHT22;6139;51.274;7.128;2023-03-20T03:35:20;7.80;99.90
12152;DHT22;6139;51.274;7.128;2023-03-20T03:36:34;7.80;99.90
12152;DHT22;6139;51.274;7.128;2023-03-20T03:37:42;7.80;99.90
12152;DHT22;6139;51.274;7.128;2023-03-20T03:38:52;7.80;99.90
12152;DHT22;6139;51.274;7.128;2023-03-20T03:40:02;7.70;99.90
12152;DHT22;6139;51.274;7.128;2023-03-20T03:41:18;7.80;99.90
12152;DHT22;6139;51.274;7.128;2023-03-20T03:42:24;7.70;99.90
12152;DHT22;6139;51.274;7.128;2023-03-20T03:43:31;7.70;99.90
12152;DHT22;6139;51.274;7.128;2023-03-20T03:44:37;7.70;99.90
12152;DHT22;6139;51.274;7.128;2023-03-20T03:45:45;7.70;99.90
12152;DHT22;6139;51.274;7.128;2023-03-20T03:46:50;7.70;99.90
12152;DHT22;6139;51.274;7.128;2023-03-20T03:47:57;7.70;99.90
12152;DHT22;6139;51.274;7.128;2023-03-20T03:49:00;7.70;99.90
12152;DHT22;6139;51.274;7.128;2023-03-20T03:50:07;7.70;99.90
12152;DHT22;6139;51.274;7.128;2023-03-20T03:51:11;7.60;99.90
12152;DHT22;6139;51.274;7.128;2023-03-20T03:52:28;7.70;99.90
12152;DHT22;6139;51.274;7.128;2023-03-20T03:53:34;7.60;99.90
12152;DHT22;6139;51.274;7.128;2023-03-20T03:54:40;7.60;99.90
12152;DHT22;6139;51.274;7.128;2023-03-20T03:56:15;7.60;99.90
12152;DHT22;6139;51.274;7.128;2023-03-20T03:57:24;7.60;99.90
12152;DHT22;6139;51.274;7.128;2023-03-20T03:58:29;7.60;99.90
12152;DHT22;6139;51.274;7.128;2023-03-20T03:59:35;7.60;99.90
12152;DHT22;6139;51.274;7.128;2023-03-20T04:00:39;7.50;99.90
12152;DHT22;6139;51.274;7.128;2023-03-20T04:01:42;7.50;99.90
12152;DHT22;6139;51.274;7.128;2023-03-20T04:02:47;7.50;99.90
12152;DHT22;6139;51.274;7.128;2023-03-20T04:03:52;7.50;99.90
12152;DHT22;6139;51.274;7.128;2023-03-20T04:04:56;7.50;99.90
12152;DHT22;6139;51.274;7.128;2023-03-20T04:05:58;7.50;99.90
12152;DHT22;6139;51.274;7.128;2023-03-20T04:07:01;7.50;99.90
12152;DHT22;6139;51.274;7.128;2023-03-20T04:08:03;7.50;99.90
12152;DHT22;6139;51.274;7.128;2023-03-20T04:09:06;7.50;99.90
12152;DHT22;6139;51.274;7.128;2023-03-20T04:10:08;7.50;99.90
12152;DHT22;6139;51.274;7.128;2023-03-20T04:11:15;7.50;99.90
12152;DHT22;6139;51.274;7.128;2023-03-20T04:12:31;7.50;99.90
12152;DHT22;6139;51.274;7.128;2023-03-20T04:13:34;7.50;99.90
12152;DHT22;6139;51.274;7.128;2023-03-20T04:14:35;7.60;99.90
12152;DHT22;6139;51.274;7.128;2023-03-20T04:15:37;7.60;99.90
12152;DHT22;6139;51.274;7.128;2023-03-20T04:16:40;7.60;99.90
12152;DHT22;6139;51.274;7.128;2023-03-20T04:17:42;7.60;99.90
12152;DHT22;6139;51.274;7.128;2023-03-20T04:18:45;7.60;99.90
12152;DHT22;6139;51.274;7.128;2023-03-20T04:19:48;7.60;99.90
12152;DHT22;6139;51.274;7.128;2023-03-20T04:20:49;7.60;99.90
12152;DHT22;6139;51.274;7.128;2023-03-20T04:21:52;7.60;99.90
12152;DHT22;6139;51.274;7.128;2023-03-20T04:22:54;7.70;99.90
12152;DHT22;6139;51.274;7.128;2023-03-20T04:23:56;7.70;99.90
12152;DHT22;6139;51.274;7.128;2023-03-20T04:24:57;7.70;99.90
12152;DHT22;6139;51.274;7.128;2023-03-20T04:26:02;7.70;99.90
12152;DHT22;6139;51.274;7.128;2023-03-20T04:27:07;7.70;99.90
12152;DHT22;6139;51.274;7.128;2023-03-20T04:28:12;7.70;99.90
12152;DHT22;6139;51.274;7.128;2023-03-20T04:29:31;7.70;99.90
12152;DHT22;6139;51.274;7.128;2023-03-20T04:30:51;7.70;99.90
12152;DHT22;6139;51.274;7.128;2023-03-20T04:32:11;7.70;99.90
12152;DHT22;6139;51.274;7.128;2023-03-20T04:33:30;7.70;99.90
12152;DHT22;6139;51.274;7.128;2023-03-20T04:34:36;7.70;99.90
12152;DHT22;6139;51.274;7.128;2023-03-20T04:35:58;7.70;99.90
12152;DHT22;6139;51.274;7.128;2023-03-20T04:37:00;7.70;99.90
12152;DHT22;6139;51.274;7.128;2023-03-20T04:38:16;7.70;99.90
12152;DHT22;6139;51.274;7.128;2023-03-20T04:39:17;7.60;99.90
12152;DHT22;6139;51.274;7.128;2023-03-20T04:40:20;7.70;99.90
12152;DHT22;6139;51.274;7.128;2023-03-20T04:41:21;7.70;99.90
12152;DHT22;6139;51.274;7.128;2023-03-20T04:42:29;7.70;99.90
12152;DHT22;6139;51.274;7.128;2023-03-20T04:43:34;7.70;99.90
12152;DHT22;6139;51.274;7.128;2023-03-20T04:44:36;7.70;99.90
12152;DHT22;6139;51.274;7.128;2023-03-20T04:45:37;7.60;99.90
12152;DHT22;6139;51.274;7.128;2023-03-20T04:46:43;7.60;99.90
12152;DHT22;6139;51.274;7.128;2023-03-20T04:47:49;7.60;99.90
12152;DHT22;6139;51.274;7.128;2023-03-20T04:48:54;7.60;99.90
12152;DHT22;6139;51.274;7.128;2023-03-20T04:49:56;7.50;99.90
12152;DHT22;6139;51.274;7.128;2023-03-20T04:50:58;7.50;99.90
12152;DHT22;6139;51.274;7.128;2023-03-20T04:52:11;7.50;99.90
12152;DHT22;6139;51.274;7.128;2023-03-20T04:53:16;7.50;99.90
12152;DHT22;6139;51.274;7.128;2023-03-20T04:54:17;7.50;99.90
12152;DHT22;6139;51.274;7.128;2023-03-20T04:55:19;7.50;99.90
12152;DHT22;6139;51.274;7.128;2023-03-20T04:56:22;7.50;99.90
12152;DHT22;6139;51.274;7.128;2023-03-20T04:57:25;7.50;99.90
12152;DHT22;6139;51.274;7.128;2023-03-20T04:58:27;7.50;99.90
12152;DHT22;6139;51.274;7.128;2023-03-20T04:59:29;7.50;99.90
12152;DHT22;6139;51.274;7.128;2023-03-20T05:00:30;7.50;99.90
12152;DHT22;6139;51.274;7.128;2023-03-20T05:01:32;7.50;99.90
12152;DHT22;6139;51.274;7.128;2023-03-20T05:02:33;7.50;99.90
12152;DHT22;6139;51.274;7.128;2023-03-20T05:03:35;7.50;99.90
12152;DHT22;6139;51.274;7.128;2023-03-20T05:04:37;7.50;99.90
12152;DHT22;6139;51.274;7.128;2023-03-20T05:05:39;7.50;99.90
12152;DHT22;6139;51.274;7.128;2023-03-20T05:06:40;7.40;99.90
12152;DHT22;6139;51.274;7.128;2023-03-20T05:07:43;7.40;99.90
12152;DHT22;6139;51.274;7.128;2023-03-20T05:08:50;7.40;99.90
12152;DHT22;6139;51.274;7.128;2023-03-20T05:09:53;7.40;99.90
12152;DHT22;6139;51.274;7.128;2023-03-20T05:10:55;7.40;99.90
12152;DHT22;6139;51.274;7.128;2023-03-20T05:12:27;7.40;99.90
12152;DHT22;6139;51.274;7.128;2023-03-20T05:13:40;7.40;99.90
12152;DHT22;6139;51.274;7.128;2023-03-20T05:15:11;7.40;99.90
12152;DHT22;6139;51.274;7.128;2023-03-20T05:16:32;7.40;99.90
12152;DHT22;6139;51.274;7.128;2023-03-20T05:17:51;7.40;99.90
12152;DHT22;6139;51.274;7.128;2023-03-20T05:19:10;7.30;99.90
12152;DHT22;6139;51.274;7.128;2023-03-20T05:20:44;7.30;99.90
12152;DHT22;6139;51.274;7.128;2023-03-20T05:22:03;7.30;99.90
12152;DHT22;6139;51.274;7.128;2023-03-20T05:23:20;7.20;99.90
12152;DHT22;6139;51.274;7.128;2023-03-20T05:24:28;7.20;99.90
12152;DHT22;6139;51.274;7.128;2023-03-20T05:25:41;7.20;99.90
12152;DHT22;6139;51.274;7.128;2023-03-20T05:26:56;7.20;99.90
12152;DHT22;6139;51.274;7.128;2023-03-20T05:28:08;7.20;99.90
12152;DHT22;6139;51.274;7.128;2023-03-20T05:29:35;7.20;99.90
12152;DHT22;6139;51.274;7.128;2023-03-20T05:31:00;7.20;99.90
12152;DHT22;6139;51.274;7.128;2023-03-20T05:32:21;7.20;99.90
12152;DHT22;6139;51.274;7.128;2023-03-20T05:33:36;7.20;99.90
12152;DHT22;6139;51.274;7.128;2023-03-20T05:34:54;7.20;99.90
12152;DHT22;6139;51.274;7.128;2023-03-20T05:36:05;7.20;99.90
12152;DHT22;6139;51.274;7.128;2023-03-20T05:37:22;7.20;99.90
12152;DHT22;6139;51.274;7.128;2023-03-20T05:38:37;7.20;99.90
12152;DHT22;6139;51.274;7.128;2023-03-20T05:39:57;7.20;99.90
12152;DHT22;6139;51.274;7.128;2023-03-20T05:41:22;7.20;99.90
12152;DHT22;6139;51.274;7.128;2023-03-20T05:42:41;7.20;99.90
12152;DHT22;6139;51.274;7.128;2023-03-20T05:43:53;7.20;99.90
12152;DHT22;6139;51.274;7.128;2023-03-20T05:45:23;7.20;99.90
12152;DHT22;6139;51.274;7.128;2023-03-20T05:46:40;7.10;99.90
12152;DHT22;6139;51.274;7.128;2023-03-20T05:47:59;7.10;99.90
12152;DHT22;6139;51.274;7.128;2023-03-20T05:49:18;7.10;99.90
12152;DHT22;6139;51.274;7.128;2023-03-20T05:50:46;7.10;99.90
12152;DHT22;6139;51.274;7.128;2023-03-20T05:52:13;7.10;99.90
12152;DHT22;6139;51.274;7.128;2023-03-20T05:53:31;7.10;99.90
12152;DHT22;6139;51.274;7.128;2023-03-20T05:55:00;7.10;99.90
12152;DHT22;6139;51.274;7.128;2023-03-20T05:56:28;7.10;99.90
12152;DHT22;6139;51.274;7.128;2023-03-20T05:57:59;7.00;99.90
12152;DHT22;6139;51.274;7.128;2023-03-20T05:59:32;7.00;99.90
12152;DHT22;6139;51.274;7.128;2023-03-20T06:01:05;7.00;99.90
12152;DHT22;6139;51.274;7.128;2023-03-20T06:02:22;7.00;99.90
12152;DHT22;6139;51.274;7.128;2023-03-20T06:03:32;7.00;99.90
12152;DHT22;6139;51.274;7.128;2023-03-20T06:04:41;7.00;99.90
12152;DHT22;6139;51.274;7.128;2023-03-20T06:05:45;7.00;99.90
12152;DHT22;6139;51.274;7.128;2023-03-20T06:06:47;7.00;99.90
12152;DHT22;6139;51.274;7.128;2023-03-20T06:07:48;7.00;99.90
12152;DHT22;6139;51.274;7.128;2023-03-20T06:08:50;7.00;99.90
12152;DHT22;6139;51.274;7.128;2023-03-20T06:09:51;7.00;99.90
12152;DHT22;6139;51.274;7.128;2023-03-20T06:10:53;7.00;99.90
12152;DHT22;6139;51.274;7.128;2023-03-20T06:11:54;7.00;99.90
12152;DHT22;6139;51.274;7.128;2023-03-20T06:12:57;7.00;99.90
12152;DHT22;6139;51.274;7.128;2023-03-20T06:14:00;7.00;99.90
12152;DHT22;6139;51.274;7.128;2023-03-20T06:15:11;7.10;99.90
12152;DHT22;6139;51.274;7.128;2023-03-20T06:16:19;7.10;99.90
12152;DHT22;6139;51.274;7.128;2023-03-20T06:17:22;7.00;99.90
12152;DHT22;6139;51.274;7.128;2023-03-20T06:18:31;7.10;99.90
12152;DHT22;6139;51.274;7.128;2023-03-20T06:19:32;7.10;99.90
12152;DHT22;6139;51.274;7.128;2023-03-20T06:20:34;7.10;99.90
12152;DHT22;6139;51.274;7.128;2023-03-20T06:21:38;7.10;99.90
12152;DHT22;6139;51.274;7.128;2023-03-20T06:22:44;7.10;99.90
12152;DHT22;6139;51.274;7.128;2023-03-20T06:23:45;7.10;99.90
12152;DHT22;6139;51.274;7.128;2023-03-20T06:24:48;7.10;99.90
12152;DHT22;6139;51.274;7.128;2023-03-20T06:25:49;7.10;99.90
12152;DHT22;6139;51.274;7.128;2023-03-20T06:26:53;7.10;99.90
12152;DHT22;6139;51.274;7.128;2023-03-20T06:27:55;7.10;99.90
12152;DHT22;6139;51.274;7.128;2023-03-20T06:28:57;7.10;99.90
12152;DHT22;6139;51.274;7.128;2023-03-20T06:29:58;7.20;99.90
12152;DHT22;6139;51.274;7.128;2023-03-20T06:31:05;7.20;99.90
12152;DHT22;6139;51.274;7.128;2023-03-20T06:32:10;7.20;99.90
12152;DHT22;6139;51.274;7.128;2023-03-20T06:33:14;7.20;99.90
12152;DHT22;6139;51.274;7.128;2023-03-20T06:34:31;7.20;99.90
12152;DHT22;6139;51.274;7.128;2023-03-20T06:35:33;7.20;99.90
12152;DHT22;6139;51.274;7.128;2023-03-20T06:36:35;7.20;99.90
12152;DHT22;6139;51.274;7.128;2023-03-20T06:37:42;7.20;99.90
12152;DHT22;6139;51.274;7.128;2023-03-20T06:38:49;7.20;99.90
12152;DHT22;6139;51.274;7.128;2023-03-20T06:39:51;7.20;99.90
12152;DHT22;6139;51.274;7.128;2023-03-20T06:40:52;7.20;99.90
12152;DHT22;6139;51.274;7.128;2023-03-20T06:41:54;7.20;99.90
12152;DHT22;6139;51.274;7.128;2023-03-20T06:42:58;7.20;99.90
12152;DHT22;6139;51.274;7.128;2023-03-20T06:44:09;7.20;99.90
12152;DHT22;6139;51.274;7.128;2023-03-20T06:45:31;7.20;99.90
12152;DHT22;6139;51.274;7.128;2023-03-20T06:46:35;7.20;99.90
12152;DHT22;6139;51.274;7.128;2023-03-20T06:47:38;7.20;99.90
12152;DHT22;6139;51.274;7.128;2023-03-20T06:48:40;7.20;99.90
12152;DHT22;6139;51.274;7.128;2023-03-20T06:49:41;7.20;99.90
12152;DHT22;6139;51.274;7.128;2023-03-20T06:50:45;7.20;99.90
12152;DHT22;6139;51.274;7.128;2023-03-20T06:51:49;7.20;99.90
12152;DHT22;6139;51.274;7.128;2023-03-20T06:52:57;7.20;99.90
12152;DHT22;6139;51.274;7.128;2023-03-20T06:54:31;7.20;99.90
12152;DHT22;6139;51.274;7.128;2023-03-20T06:55:33;7.20;99.90
12152;DHT22;6139;51.274;7.128;2023-03-20T06:56:35;7.20;99.90
12152;DHT22;6139;51.274;7.128;2023-03-20T06:57:37;7.20;99.90
12152;DHT22;6139;51.274;7.128;2023-03-20T06:58:38;7.20;99.90
12152;DHT22;6139;51.274;7.128;2023-03-20T06:59:40;7.20;99.90
12152;DHT22;6139;51.274;7.128;2023-03-20T07:00:41;7.20;99.90
12152;DHT22;6139;51.274;7.128;2023-03-20T07:01:44;7.20;99.90
12152;DHT22;6139;51.274;7.128;2023-03-20T07:02:46;7.20;99.90
12152;DHT22;6139;51.274;7.128;2023-03-20T07:03:49;7.20;99.90
12152;DHT22;6139;51.274;7.128;2023-03-20T07:04:56;7.20;99.90
12152;DHT22;6139;51.274;7.128;2023-03-20T07:06:01;7.20;99.90
12152;DHT22;6139;51.274;7.128;2023-03-20T07:07:04;7.20;99.90
12152;DHT22;6139;51.274;7.128;2023-03-20T07:08:05;7.20;99.90
12152;DHT22;6139;51.274;7.128;2023-03-20T07:09:07;7.20;99.90
12152;DHT22;6139;51.274;7.128;2023-03-20T07:10:10;7.20;99.90
12152;DHT22;6139;51.274;7.128;2023-03-20T07:11:12;7.20;99.90
12152;DHT22;6139;51.274;7.128;2023-03-20T07:12:16;7.20;99.90
12152;DHT22;6139;51.274;7.128;2023-03-20T07:13:20;7.20;99.90
12152;DHT22;6139;51.274;7.128;2023-03-20T07:14:21;7.20;99.90
12152;DHT22;6139;51.274;7.128;2023-03-20T07:15:36;7.30;99.90
12152;DHT22;6139;51.274;7.128;2023-03-20T07:16:39;7.20;99.90
12152;DHT22;6139;51.274;7.128;2023-03-20T07:17:41;7.20;99.90
12152;DHT22;6139;51.274;7.128;2023-03-20T07:18:45;7.30;99.90
12152;DHT22;6139;51.274;7.128;2023-03-20T07:19:46;7.30;99.90
12152;DHT22;6139;51.274;7.128;2023-03-20T07:20:49;7.30;99.90
12152;DHT22;6139;51.274;7.128;2023-03-20T07:21:54;7.30;99.90
12152;DHT22;6139;51.274;7.128;2023-03-20T07:22:57;7.40;99.90
12152;DHT22;6139;51.274;7.128;2023-03-20T07:24:01;7.40;99.90
12152;DHT22;6139;51.274;7.128;2023-03-20T07:25:03;7.40;99.90
12152;DHT22;6139;51.274;7.128;2023-03-20T07:26:05;7.40;99.90
12152;DHT22;6139;51.274;7.128;2023-03-20T07:27:07;7.40;99.90
12152;DHT22;6139;51.274;7.128;2023-03-20T07:28:09;7.50;99.90